createdAt,value
2023-04-18T00:01:41.183Z,60.21
2023-04-18T00:04:07.662Z,60.41
2023-04-18T00:06:34.097Z,60.20
2023-04-18T00:09:00.360Z,60.45
2023-04-18T00:11:26.623Z,60.37
2023-04-18T00:13:52.865Z,60.45
2023-04-18T00:16:19.128Z,60.96
2023-04-18T00:18:45.357Z,60.84
2023-04-18T00:21:11.654Z,61.20
2023-04-18T00:23:37.927Z,61.46
2023-04-18T00:26:04.163Z,61.04
2023-04-18T00:28:30.465Z,60.97
2023-04-18T00:30:56.806Z,61.31
2023-04-18T00:33:23.118Z,60.95
2023-04-18T00:35:49.394Z,60.87
2023-04-18T00:38:15.740Z,60.95
2023-04-18T00:40:41.974Z,61.75
2023-04-18T00:43:08.217Z,62.52
2023-04-18T00:45:34.487Z,62.67
2023-04-18T00:48:00.853Z,63.01
2023-04-18T00:50:27.213Z,63.15
2023-04-18T00:52:53.472Z,63.31
2023-04-18T00:55:19.723Z,63.18
2023-04-18T00:57:45.985Z,63.62
2023-04-18T01:00:12.255Z,63.28
2023-04-18T01:02:38.626Z,63.38
2023-04-18T01:05:04.937Z,63.15
2023-04-18T01:07:31.185Z,63.68
2023-04-18T01:09:57.474Z,64.00
2023-04-18T01:12:23.738Z,63.98
2023-04-18T01:14:49.990Z,64.28
2023-04-18T01:17:16.266Z,63.96
2023-04-18T01:19:42.547Z,63.86
2023-04-18T01:22:08.798Z,64.61
2023-04-18T01:24:35.035Z,65.33
2023-04-18T01:27:01.297Z,65.60
2023-04-18T01:29:27.605Z,65.61
2023-04-18T01:31:53.902Z,65.71
2023-04-18T01:34:20.177Z,66.41
2023-04-18T01:36:46.484Z,66.43
2023-04-18T01:39:12.773Z,66.53
2023-04-18T01:41:39.032Z,66.71
2023-04-18T01:44:05.312Z,66.28
2023-04-18T01:46:31.644Z,65.39
2023-04-18T01:48:57.933Z,64.74
2023-04-18T01:51:24.169Z,65.54
2023-04-18T01:53:50.401Z,65.60
2023-04-18T01:56:16.714Z,65.87
2023-04-18T01:58:43.002Z,65.94
2023-04-18T02:01:09.283Z,65.94
2023-04-18T02:03:35.789Z,65.71
2023-04-18T02:06:02.204Z,65.27
2023-04-18T02:08:28.457Z,64.70
2023-04-18T02:10:54.714Z,64.76
2023-04-18T02:13:21.015Z,64.66
2023-04-18T02:15:47.294Z,65.17
2023-04-18T02:18:13.538Z,65.13
2023-04-18T02:20:39.794Z,64.51
2023-04-18T02:23:06.085Z,64.99
2023-04-18T02:25:32.382Z,64.54
2023-04-18T02:27:58.625Z,64.38
2023-04-18T02:30:24.899Z,64.29
2023-04-18T02:32:51.181Z,64.39
2023-04-18T02:35:17.506Z,64.49
2023-04-18T02:37:43.743Z,64.51
2023-04-18T02:40:09.993Z,64.33
2023-04-18T02:42:36.224Z,63.93
2023-04-18T02:45:02.484Z,63.67
2023-04-18T02:47:29.483Z,63.48
2023-04-18T02:49:56.625Z,63.57
2023-04-18T02:52:22.900Z,63.62
2023-04-18T02:54:49.145Z,64.10
2023-04-18T02:57:15.401Z,63.92
2023-04-18T02:59:41.654Z,64.11
2023-04-18T03:02:07.934Z,64.96
2023-04-18T03:04:34.227Z,64.74
2023-04-18T03:07:00.481Z,64.59
2023-04-18T03:09:26.721Z,65.13
2023-04-18T03:11:52.964Z,64.72
2023-04-18T03:14:19.236Z,64.92
2023-04-18T03:16:45.517Z,64.65
2023-04-18T03:19:11.736Z,65.00
2023-04-18T03:21:37.974Z,65.33
2023-04-18T03:24:04.240Z,64.94
2023-04-18T03:26:30.495Z,64.96
2023-04-18T03:28:56.787Z,64.62
2023-04-18T03:31:23.052Z,64.56
2023-04-18T03:33:49.316Z,64.24
2023-04-18T03:36:15.584Z,64.20
2023-04-18T03:38:41.821Z,63.96
2023-04-18T03:41:08.064Z,64.17
2023-04-18T03:43:34.340Z,64.18
2023-04-18T03:46:00.677Z,64.31
2023-04-18T03:48:26.964Z,64.40
2023-04-18T03:50:53.202Z,64.44
2023-04-18T03:53:19.454Z,64.23
2023-04-18T03:55:45.734Z,64.58
2023-04-18T03:58:12.054Z,64.62
2023-04-18T04:00:38.305Z,64.11
2023-04-18T04:03:04.737Z,64.41
2023-04-18T04:05:31.174Z,64.54
2023-04-18T04:07:57.409Z,64.46
2023-04-18T04:10:23.636Z,64.52
2023-04-18T04:12:49.926Z,64.46
2023-04-18T04:15:16.186Z,64.65
2023-04-18T04:17:42.498Z,64.36
2023-04-18T04:20:08.773Z,64.95
2023-04-18T04:22:35.016Z,64.83
2023-04-18T04:25:01.271Z,64.95
2023-04-18T04:27:27.531Z,64.98
2023-04-18T04:29:53.772Z,65.52
2023-04-18T04:32:20.052Z,65.80
2023-04-18T04:34:46.393Z,66.62
2023-04-18T04:37:12.653Z,66.44
2023-04-18T04:39:38.889Z,66.24
2023-04-18T04:42:05.149Z,66.31
2023-04-18T04:44:31.444Z,66.51
2023-04-18T04:46:57.709Z,66.01
2023-04-18T04:49:23.935Z,66.18
2023-04-18T04:51:50.172Z,65.73
2023-04-18T04:54:16.693Z,65.67
2023-04-18T04:56:43.078Z,65.80
2023-04-18T04:59:09.302Z,65.69
2023-04-18T05:01:35.596Z,65.50
2023-04-18T05:04:02.002Z,64.60
2023-04-18T05:06:28.450Z,64.47
2023-04-18T05:08:54.720Z,63.60
2023-04-18T05:11:20.999Z,63.14
2023-04-18T05:13:47.309Z,62.74
2023-04-18T05:16:13.564Z,62.93
2023-04-18T05:18:39.843Z,62.61
2023-04-18T05:21:06.096Z,61.62
2023-04-18T05:23:32.534Z,61.33
2023-04-18T05:25:58.894Z,61.08
2023-04-18T05:28:25.190Z,60.75
2023-04-18T05:30:51.658Z,61.02
2023-04-18T05:33:18.082Z,61.09
2023-04-18T05:35:44.680Z,61.83
2023-04-18T05:38:11.456Z,62.43
2023-04-18T05:40:37.763Z,62.63
2023-04-18T05:43:04.558Z,62.46
2023-04-18T05:45:30.911Z,62.78
2023-04-18T05:47:57.237Z,63.02
2023-04-18T05:50:23.585Z,63.45
2023-04-18T05:52:49.804Z,62.86
2023-04-18T05:55:16.040Z,62.20
2023-04-18T05:57:42.312Z,61.93
2023-04-18T06:00:08.548Z,61.87
2023-04-18T06:02:35.023Z,61.58
2023-04-18T06:05:01.672Z,61.89
2023-04-18T06:07:32.733Z,62.11
2023-04-18T06:10:06.089Z,62.43
2023-04-18T06:12:33.692Z,62.70
2023-04-18T06:15:08.151Z,62.68
2023-04-18T06:17:42.225Z,62.49
2023-04-18T06:20:08.726Z,62.66
2023-04-18T06:22:35.394Z,61.75
2023-04-18T06:25:01.894Z,62.34
2023-04-18T06:27:31.486Z,62.38
2023-04-18T06:29:58.462Z,62.46
2023-04-18T06:32:24.987Z,61.46
2023-04-18T06:34:51.498Z,60.71
2023-04-18T06:37:17.976Z,60.26
2023-04-18T06:39:44.582Z,62.25
2023-04-18T06:42:11.260Z,63.14
2023-04-18T06:44:37.753Z,63.03
2023-04-18T06:47:04.611Z,62.45
2023-04-18T06:49:31.044Z,61.55
2023-04-18T06:51:57.356Z,62.02
2023-04-18T06:54:23.745Z,60.80
2023-04-18T06:56:50.155Z,61.56
2023-04-18T06:59:16.527Z,62.10
2023-04-18T07:01:42.967Z,59.92
2023-04-18T07:04:09.370Z,60.59
2023-04-18T07:06:35.717Z,59.26
2023-04-18T07:09:02.009Z,59.50
2023-04-18T07:11:28.356Z,59.24
2023-04-18T07:13:54.618Z,59.19
2023-04-18T07:16:20.973Z,58.63
2023-04-18T07:18:47.290Z,58.55
2023-04-18T07:21:13.551Z,55.63
2023-04-18T07:23:39.853Z,53.71
2023-04-18T07:26:06.149Z,54.27
2023-04-18T07:28:32.402Z,55.23
2023-04-18T07:30:58.745Z,53.53
2023-04-18T07:33:25.103Z,53.55
2023-04-18T07:35:51.389Z,52.39
2023-04-18T07:38:17.669Z,52.88
2023-04-18T07:40:43.924Z,54.21
2023-04-18T07:43:10.166Z,53.65
2023-04-18T07:45:36.394Z,53.00
2023-04-18T07:48:02.681Z,54.53
2023-04-18T07:50:28.988Z,53.49
2023-04-18T07:52:55.222Z,53.41
2023-04-18T07:55:21.470Z,53.79
2023-04-18T07:57:47.721Z,52.54
2023-04-18T08:00:14.064Z,52.96
2023-04-18T08:02:40.508Z,52.01
2023-04-18T08:05:06.930Z,50.64
2023-04-18T08:07:33.374Z,51.71
2023-04-18T08:09:59.639Z,52.47
2023-04-18T08:12:25.903Z,52.16
2023-04-18T08:14:52.153Z,51.71
2023-04-18T08:17:18.419Z,51.49
2023-04-18T08:19:44.694Z,51.59
2023-04-18T08:22:10.977Z,50.73
2023-04-18T08:24:37.266Z,53.81
2023-04-18T08:27:03.630Z,53.16
2023-04-18T08:29:30.893Z,51.60
2023-04-18T08:31:57.432Z,51.64
2023-04-18T08:34:23.966Z,52.03
2023-04-18T08:36:50.425Z,52.63
2023-04-18T08:39:16.886Z,52.02
2023-04-18T08:41:43.289Z,51.06
2023-04-18T08:44:09.752Z,50.14
2023-04-18T08:46:36.666Z,52.28
2023-04-18T08:49:02.987Z,54.63
2023-04-18T08:51:29.263Z,53.67
2023-04-18T08:53:55.505Z,55.02
2023-04-18T08:56:21.799Z,54.14
2023-04-18T08:58:48.094Z,52.91
2023-04-18T09:01:14.624Z,53.49
2023-04-18T09:03:41.168Z,53.51
2023-04-18T09:06:07.633Z,53.38
2023-04-18T09:08:34.104Z,51.68
2023-04-18T09:11:01.104Z,52.45
2023-04-18T09:13:27.487Z,51.11
2023-04-18T09:15:53.969Z,52.45
2023-04-18T09:18:20.405Z,51.12
2023-04-18T09:20:46.947Z,50.73
2023-04-18T09:23:13.503Z,50.29
2023-04-18T09:25:43.207Z,48.76
2023-04-18T09:28:14.118Z,47.93
2023-04-18T09:30:40.802Z,48.50
2023-04-18T09:33:07.572Z,47.72
2023-04-18T09:35:34.383Z,47.48
2023-04-18T09:38:00.832Z,48.14
2023-04-18T09:40:27.070Z,47.70
2023-04-18T09:42:53.361Z,47.17
2023-04-18T09:45:19.640Z,46.39
2023-04-18T09:47:45.985Z,44.19
2023-04-18T09:50:12.336Z,45.04
2023-04-18T09:52:38.605Z,44.72
2023-04-18T09:55:04.903Z,43.64
2023-04-18T09:57:31.154Z,43.50
2023-04-18T09:59:57.422Z,41.03
2023-04-18T10:02:23.796Z,42.76
2023-04-18T10:04:50.178Z,41.07
2023-04-18T10:07:16.471Z,41.96
2023-04-18T10:09:42.720Z,41.30
2023-04-18T10:12:08.972Z,40.90
2023-04-18T10:14:35.233Z,41.83
2023-04-18T10:17:01.471Z,39.39
2023-04-18T10:19:27.715Z,40.97
2023-04-18T10:21:54.011Z,40.79
2023-04-18T10:24:20.298Z,38.03
2023-04-18T10:26:46.595Z,37.73
2023-04-18T10:29:13.053Z,38.43
2023-04-18T10:31:39.648Z,37.73
2023-04-18T10:34:06.317Z,38.29
2023-04-18T10:36:32.653Z,37.80
2023-04-18T10:38:58.888Z,37.87
2023-04-18T10:41:25.171Z,36.35
2023-04-18T10:43:51.475Z,36.72
2023-04-18T10:46:31.082Z,35.83
2023-04-18T10:48:58.432Z,37.33
2023-04-18T10:51:24.691Z,35.21
2023-04-18T10:53:51.997Z,35.86
2023-04-18T10:56:18.323Z,36.13
2023-04-18T10:58:44.583Z,36.25
2023-04-18T11:01:10.896Z,34.81
2023-04-18T11:03:37.336Z,35.32
2023-04-18T11:06:03.664Z,33.72
2023-04-18T11:08:30.443Z,33.78
2023-04-18T11:10:56.752Z,33.90
2023-04-18T11:13:23.051Z,33.99
2023-04-18T11:15:49.307Z,33.80
2023-04-18T11:18:15.647Z,33.56
2023-04-18T11:20:41.923Z,34.28
2023-04-18T11:23:08.193Z,35.84
2023-04-18T11:25:34.487Z,33.26
2023-04-18T11:28:00.874Z,34.02
2023-04-18T11:30:27.268Z,33.17
2023-04-18T11:32:53.618Z,32.86
2023-04-18T11:35:19.918Z,33.20
2023-04-18T11:37:46.172Z,31.73
2023-04-18T11:40:12.431Z,30.48
2023-04-18T11:42:38.779Z,31.41
2023-04-18T11:45:05.063Z,31.32
2023-04-18T11:47:31.316Z,33.22
2023-04-18T11:49:57.591Z,31.49
2023-04-18T11:52:23.865Z,32.28
2023-04-18T11:54:50.145Z,31.15
2023-04-18T11:57:16.476Z,30.40
2023-04-18T11:59:43.014Z,31.92
2023-04-18T12:02:16.164Z,30.90
2023-04-18T12:04:43.061Z,31.43
2023-04-18T12:07:09.675Z,30.30
2023-04-18T12:09:36.105Z,30.18
2023-04-18T12:12:03.113Z,30.25
2023-04-18T12:14:29.565Z,30.67
2023-04-18T12:16:55.977Z,30.88
2023-04-18T12:19:22.440Z,30.29
2023-04-18T12:21:48.770Z,29.33
2023-04-18T12:24:15.130Z,30.03
2023-04-18T12:26:41.690Z,30.52
2023-04-18T12:29:08.058Z,29.51
2023-04-18T12:31:34.385Z,28.02
2023-04-18T12:34:00.698Z,28.16
2023-04-18T12:36:27.023Z,28.87
2023-04-18T12:38:53.298Z,27.24
2023-04-18T12:41:19.532Z,28.78
2023-04-18T12:43:45.821Z,27.27
2023-04-18T12:46:12.135Z,27.33
2023-04-18T12:48:38.430Z,26.33
2023-04-18T12:51:04.724Z,25.41
2023-04-18T12:53:31.011Z,25.40
2023-04-18T12:55:57.277Z,23.86
2023-04-18T12:58:24.466Z,24.83
2023-04-18T13:00:50.809Z,24.18
2023-04-18T13:03:17.326Z,25.47
2023-04-18T13:05:43.703Z,24.99
2023-04-18T13:08:17.158Z,25.68
2023-04-18T13:10:44.337Z,25.62
2023-04-18T13:13:10.613Z,24.91
2023-04-18T13:15:37.058Z,24.21
2023-04-18T13:18:03.520Z,25.76
2023-04-18T13:20:29.865Z,25.32
2023-04-18T13:22:56.321Z,27.41
2023-04-18T13:25:22.559Z,28.16
2023-04-18T13:27:48.801Z,27.45
2023-04-18T13:30:15.094Z,26.02
2023-04-18T13:32:43.318Z,28.62
2023-04-18T13:35:09.718Z,27.81
2023-04-18T13:37:35.962Z,26.27
2023-04-18T13:40:02.197Z,28.15
2023-04-18T13:42:28.684Z,27.02
2023-04-18T13:44:54.963Z,26.45
2023-04-18T13:47:21.310Z,24.89
2023-04-18T13:49:47.645Z,24.08
2023-04-18T13:52:13.918Z,24.05
2023-04-18T13:54:40.158Z,23.80
2023-04-18T13:57:06.394Z,23.95
2023-04-18T13:59:32.704Z,23.76
2023-04-18T14:01:59.122Z,23.04
2023-04-18T14:04:25.684Z,24.75
2023-04-18T14:06:52.234Z,24.09
2023-04-18T14:09:18.488Z,25.31
2023-04-18T14:11:44.739Z,24.53
2023-04-18T14:14:11.010Z,23.86
2023-04-18T14:16:37.247Z,26.50
2023-04-18T14:19:03.530Z,25.43
2023-04-18T14:21:29.809Z,24.48
2023-04-18T14:23:56.139Z,24.63
2023-04-18T14:26:22.426Z,25.38
2023-04-18T14:28:48.702Z,25.75
2023-04-18T14:31:14.986Z,24.61
2023-04-18T14:33:41.328Z,25.25
2023-04-18T14:36:07.597Z,26.86
2023-04-18T14:38:33.893Z,26.68
2023-04-18T14:41:00.180Z,26.79
2023-04-18T14:43:26.509Z,27.74
2023-04-18T14:45:52.773Z,27.17
2023-04-18T14:48:19.059Z,27.08
2023-04-18T14:50:45.399Z,28.62
2023-04-18T14:53:11.622Z,29.51
2023-04-18T14:55:37.886Z,27.84
2023-04-18T14:58:04.150Z,27.92
2023-04-18T15:00:30.429Z,26.04
2023-04-18T15:02:56.970Z,27.18
2023-04-18T15:05:23.335Z,27.96
2023-04-18T15:07:49.592Z,26.16
2023-04-18T15:10:15.815Z,26.83
2023-04-18T15:12:42.073Z,26.63
2023-04-18T15:15:08.317Z,28.27
2023-04-18T15:17:34.592Z,28.95
2023-04-18T15:20:00.860Z,26.88
2023-04-18T15:22:27.213Z,27.74
2023-04-18T15:24:53.477Z,27.49
2023-04-18T15:27:21.096Z,29.42
2023-04-18T15:29:47.389Z,29.00
2023-04-18T15:32:13.732Z,28.31
2023-04-18T15:34:40.062Z,28.70
2023-04-18T15:37:06.362Z,28.57
2023-04-18T15:39:32.656Z,29.50
2023-04-18T15:41:58.947Z,30.13
2023-04-18T15:44:25.211Z,30.18
2023-04-18T15:46:51.459Z,29.85
2023-04-18T15:49:17.698Z,30.37
2023-04-18T15:51:43.984Z,30.92
2023-04-18T15:54:10.285Z,29.23
2023-04-18T15:56:36.502Z,30.61
2023-04-18T15:59:02.764Z,30.69
2023-04-18T16:01:28.989Z,31.35
2023-04-18T16:03:55.329Z,30.10
2023-04-18T16:06:21.648Z,30.41
2023-04-18T16:08:47.923Z,30.01
2023-04-18T16:11:14.162Z,30.08
2023-04-18T16:13:40.394Z,31.00
2023-04-18T16:16:06.693Z,31.99
2023-04-18T16:18:32.948Z,31.32
2023-04-18T16:20:59.180Z,30.92
2023-04-18T16:23:25.393Z,32.41
2023-04-18T16:25:51.619Z,32.91
2023-04-18T16:28:17.846Z,32.09
2023-04-18T16:30:44.074Z,31.95
2023-04-18T16:33:10.399Z,32.73
2023-04-18T16:35:36.698Z,32.46
2023-04-18T16:38:05.868Z,32.98
2023-04-18T16:40:32.121Z,33.54
2023-04-18T16:42:58.405Z,33.01
2023-04-18T16:45:25.380Z,32.58
2023-04-18T16:47:51.715Z,32.62
2023-04-18T16:50:17.977Z,33.14
2023-04-18T16:52:44.218Z,33.54
2023-04-18T16:55:10.467Z,35.03
2023-04-18T16:57:36.692Z,34.68
2023-04-18T17:00:02.933Z,34.64
2023-04-18T17:02:29.310Z,34.51
2023-04-18T17:04:55.700Z,33.69
2023-04-18T17:07:21.935Z,33.57
2023-04-18T17:09:48.174Z,33.39
2023-04-18T17:12:14.410Z,33.26
2023-04-18T17:14:40.629Z,34.15
2023-04-18T17:17:06.839Z,35.53
2023-04-18T17:19:33.079Z,35.46
2023-04-18T17:21:59.303Z,34.89
2023-04-18T17:24:25.537Z,34.83
2023-04-18T17:26:51.989Z,35.35
2023-04-18T17:29:18.276Z,36.32
2023-04-18T17:31:44.541Z,37.14
2023-04-18T17:34:10.841Z,38.75
2023-04-18T17:36:37.133Z,39.39
2023-04-18T17:39:03.388Z,39.22
2023-04-18T17:41:29.609Z,40.28
2023-04-18T17:43:55.876Z,39.80
2023-04-18T17:46:22.134Z,40.08
2023-04-18T17:48:48.367Z,40.08
2023-04-18T17:51:14.585Z,40.82
2023-04-18T17:53:40.827Z,40.06
2023-04-18T17:56:07.069Z,40.13
2023-04-18T17:58:33.307Z,40.69
2023-04-18T18:00:59.582Z,39.34
2023-04-18T18:03:25.966Z,39.15
2023-04-18T18:05:52.316Z,41.10
2023-04-18T18:08:18.542Z,41.62
2023-04-18T18:10:46.502Z,42.08
2023-04-18T18:13:12.878Z,41.33
2023-04-18T18:15:39.108Z,41.95
2023-04-18T18:18:05.359Z,43.13
2023-04-18T18:20:31.637Z,43.17
2023-04-18T18:22:57.862Z,43.83
2023-04-18T18:25:24.086Z,44.27
2023-04-18T18:27:50.313Z,45.00
2023-04-18T18:30:16.568Z,45.43
2023-04-18T18:32:42.825Z,45.99
2023-04-18T18:35:09.092Z,46.01
2023-04-18T18:37:35.325Z,46.42
2023-04-18T18:40:01.540Z,46.42
2023-04-18T18:42:31.098Z,46.85
2023-04-18T18:44:57.326Z,47.29
2023-04-18T18:47:23.568Z,47.31
2023-04-18T18:49:49.815Z,47.03
2023-04-18T18:52:16.069Z,47.13
2023-04-18T18:54:42.318Z,47.54
2023-04-18T18:57:08.541Z,47.28
2023-04-18T18:59:34.824Z,47.30
2023-04-18T19:02:01.128Z,47.09
2023-04-18T19:04:27.598Z,46.85
2023-04-18T19:06:53.912Z,47.21
2023-04-18T19:09:20.150Z,47.26
2023-04-18T19:11:46.406Z,47.60
2023-04-18T19:14:12.625Z,47.56
2023-04-18T19:16:38.905Z,47.78
2023-04-18T19:19:05.206Z,47.28
2023-04-18T19:21:31.494Z,46.76
2023-04-18T19:23:57.742Z,46.82
2023-04-18T19:26:23.999Z,46.79
2023-04-18T19:28:50.231Z,47.42
2023-04-18T19:31:16.482Z,47.41
2023-04-18T19:33:42.748Z,47.00
2023-04-18T19:36:08.996Z,46.75
2023-04-18T19:38:35.256Z,46.71
2023-04-18T19:41:01.497Z,46.41
2023-04-18T19:43:27.742Z,46.48
2023-04-18T19:45:55.275Z,46.28
2023-04-18T19:48:22.095Z,46.55
2023-04-18T19:50:48.344Z,46.40
2023-04-18T19:53:14.579Z,46.48
2023-04-18T19:55:40.815Z,46.43
2023-04-18T19:58:07.054Z,46.75
2023-04-18T20:00:33.268Z,46.68
2023-04-18T20:02:59.820Z,46.84
2023-04-18T20:05:26.279Z,46.94
2023-04-18T20:07:52.634Z,47.03
2023-04-18T20:10:18.883Z,47.36
2023-04-18T20:12:45.146Z,46.90
2023-04-18T20:15:11.421Z,46.97
2023-04-18T20:17:37.731Z,46.57
2023-04-18T20:20:04.003Z,46.33
2023-04-18T20:22:30.339Z,46.56
2023-04-18T20:24:56.585Z,47.00
2023-04-18T20:27:22.824Z,47.20
2023-04-18T20:29:49.057Z,47.35
2023-04-18T20:32:15.313Z,47.20
2023-04-18T20:34:41.552Z,47.18
2023-04-18T20:37:07.770Z,47.05
2023-04-18T20:39:34.001Z,47.36
2023-04-18T20:42:00.280Z,47.13
2023-04-18T20:44:26.522Z,47.63
2023-04-18T20:46:52.794Z,48.06
2023-04-18T20:49:19.051Z,48.65
2023-04-18T20:51:45.286Z,48.14
2023-04-18T20:54:11.531Z,48.12
2023-04-18T20:56:37.775Z,48.20
2023-04-18T20:59:04.011Z,48.28
2023-04-18T21:01:30.359Z,48.18
2023-04-18T21:03:56.921Z,48.17
2023-04-18T21:06:23.350Z,48.20
2023-04-18T21:08:49.586Z,48.01
2023-04-18T21:11:15.825Z,48.37
2023-04-18T21:13:42.063Z,49.66
2023-04-18T21:16:08.349Z,50.16
2023-04-18T21:18:34.688Z,50.41
2023-04-18T21:21:00.961Z,50.28
2023-04-18T21:23:27.185Z,49.51
2023-04-18T21:25:53.421Z,49.81
2023-04-18T21:28:19.690Z,49.48
2023-04-18T21:30:45.909Z,49.60
2023-04-18T21:33:12.193Z,49.82
2023-04-18T21:35:38.423Z,49.28
2023-04-18T21:38:04.669Z,49.21
2023-04-18T21:40:30.919Z,49.36
2023-04-18T21:42:57.163Z,49.50
2023-04-18T21:45:23.461Z,49.65
2023-04-18T21:47:49.776Z,49.57
2023-04-18T21:50:16.096Z,49.21
2023-04-18T21:52:42.375Z,49.28
2023-04-18T21:55:08.646Z,49.22
2023-04-18T21:57:34.873Z,49.57
2023-04-18T22:00:01.135Z,50.37
2023-04-18T22:02:27.533Z,50.38
2023-04-18T22:04:53.897Z,50.62
2023-04-18T22:07:20.165Z,50.61
2023-04-18T22:09:46.408Z,50.71
2023-04-18T22:12:12.647Z,51.12
2023-04-18T22:14:38.924Z,50.75
2023-04-18T22:17:05.208Z,50.97
2023-04-18T22:19:31.475Z,50.90
2023-04-18T22:21:57.742Z,51.03
2023-04-18T22:24:23.991Z,51.42
2023-04-18T22:26:50.237Z,51.24
2023-04-18T22:29:16.491Z,51.21
2023-04-18T22:31:42.727Z,51.06
2023-04-18T22:34:08.956Z,50.75
2023-04-18T22:36:35.204Z,50.60
2023-04-18T22:39:01.445Z,50.63
2023-04-18T22:41:27.686Z,50.60
2023-04-18T22:43:53.935Z,50.97
2023-04-18T22:46:20.203Z,51.34
2023-04-18T22:48:46.479Z,51.00
2023-04-18T22:51:12.698Z,51.57
2023-04-18T22:53:38.986Z,51.52
2023-04-18T22:56:05.301Z,51.46
2023-04-18T22:58:31.555Z,51.21
2023-04-18T23:00:57.786Z,50.92
2023-04-18T23:03:24.199Z,50.59
2023-04-18T23:05:50.550Z,50.91
2023-04-18T23:08:16.829Z,51.51
2023-04-18T23:10:43.108Z,51.47
2023-04-18T23:13:09.367Z,51.19
2023-04-18T23:15:36.254Z,50.95
2023-04-18T23:18:02.523Z,50.97
2023-04-18T23:20:28.782Z,51.37
2023-04-18T23:22:55.025Z,51.23
2023-04-18T23:25:21.269Z,51.71
2023-04-18T23:27:47.568Z,51.46
2023-04-18T23:30:14.259Z,51.23
2023-04-18T23:32:40.543Z,50.82
2023-04-18T23:35:06.937Z,51.35
2023-04-18T23:37:33.185Z,51.01
2023-04-18T23:39:59.427Z,51.17
2023-04-18T23:42:25.673Z,50.62
2023-04-18T23:44:51.921Z,51.16
2023-04-18T23:47:18.220Z,50.89
2023-04-18T23:49:44.567Z,50.75
2023-04-18T23:52:10.792Z,50.89
2023-04-18T23:54:37.039Z,50.97
2023-04-18T23:57:03.285Z,50.67
2023-04-18T23:59:29.548Z,50.40
